Airfield :
LOGIN :

Register | Disclaimer

   EN    FR    IT 

 










Legend :    VFR   Marginal VFR   IFR   Intensive IFR   Very Intensive IFR
Visi :
Ceiling :
>= 8 km
>= 3000ft
5 to 8 km
1000 to 3000 ft
1500m to 5 km
500 to 1000 ft
800 to 1500m
200 to 500 ft
< 800m
< 200 ft
Symbols :   Thunderstorms  Fog  Heavy snow  Heavy precipitations  Wind > 20 kt
SIGMETs :     Misc.  Thunderstorms  Icing  Turbulence  Mountain Waves  Volcanic Ashes






- Airport Elevation : 3310 ft
- IATA code : AFY


LTAH - Afyon AB

CURRENT METAR :
  • 080824Z 09004KT 030V120 6000 NSC 08/03 Q1022 RMK RWY13 VRB02KT

EXPIRED METARs :
  • 080715Z VRB02KT 3300 BR NSC 04/01 Q1022 RMK RWY13 VRB02KT

TAF TAF LTAH
Valid from the 08 at 09:00 until the 08 at 18:00 UTC


080740Z 0809/0818 VRB02KT 7000 NSC
BECMG 0811/0813 SCT035 BKN100



MET'MAP, your aeronautical weather chart ! - Copyright ORBIFLY December 2007 - Disclaimer

ORBIFLY MET'MAP TEAM :

Programming & Development : Alexandra Zaïnal
Original concept : Baudouin d'Aumeries
Technical & hardware support : Manuel Goepfert
Assistance : Marc-Olivier Méhu




SOURCES & CREDITS :

   NOAA